sensor_id;sensor_type;location;lat;lon;timestamp;P1;durP1;ratioP1;P2;durP2;ratioP2
43086;SDS011;28708;52.224;6.924;2023-06-05T00:02:01;7.97;;;3.93;;
43086;SDS011;28708;52.224;6.924;2023-06-05T00:04:27;9.37;;;4.40;;
43086;SDS011;28708;52.224;6.924;2023-06-05T00:06:53;8.73;;;4.07;;
43086;SDS011;28708;52.224;6.924;2023-06-05T00:09:19;6.47;;;3.90;;
43086;SDS011;28708;52.224;6.924;2023-06-05T00:11:45;8.33;;;4.20;;
43086;SDS011;28708;52.224;6.924;2023-06-05T00:14:11;7.80;;;4.13;;
43086;SDS011;28708;52.224;6.924;2023-06-05T00:16:37;11.43;;;4.30;;
43086;SDS011;28708;52.224;6.924;2023-06-05T00:19:03;6.80;;;3.77;;
43086;SDS011;28708;52.224;6.924;2023-06-05T00:21:29;8.43;;;4.10;;
43086;SDS011;28708;52.224;6.924;2023-06-05T00:23:54;8.40;;;4.47;;
43086;SDS011;28708;52.224;6.924;2023-06-05T00:26:20;9.23;;;4.50;;
43086;SDS011;28708;52.224;6.924;2023-06-05T00:28:47;10.13;;;4.77;;
43086;SDS011;28708;52.224;6.924;2023-06-05T00:31:13;8.13;;;4.43;;
43086;SDS011;28708;52.224;6.924;2023-06-05T00:33:39;7.33;;;4.50;;
43086;SDS011;28708;52.224;6.924;2023-06-05T00:36:05;8.30;;;4.50;;
43086;SDS011;28708;52.224;6.924;2023-06-05T00:38:31;7.67;;;4.40;;
43086;SDS011;28708;52.224;6.924;2023-06-05T00:40:57;10.87;;;4.63;;
43086;SDS011;28708;52.224;6.924;2023-06-05T00:43:23;8.87;;;5.20;;
43086;SDS011;28708;52.224;6.924;2023-06-05T00:45:49;9.93;;;4.97;;
43086;SDS011;28708;52.224;6.924;2023-06-05T00:48:18;13.27;;;5.47;;
43086;SDS011;28708;52.224;6.924;2023-06-05T00:50:44;12.43;;;5.70;;
43086;SDS011;28708;52.224;6.924;2023-06-05T00:53:10;9.87;;;5.50;;
43086;SDS011;28708;52.224;6.924;2023-06-05T00:55:37;9.57;;;5.70;;
43086;SDS011;28708;52.224;6.924;2023-06-05T00:58:02;7.17;;;5.47;;
43086;SDS011;28708;52.224;6.924;2023-06-05T01:00:30;10.23;;;5.73;;
43086;SDS011;28708;52.224;6.924;2023-06-05T01:02:55;8.40;;;5.77;;
43086;SDS011;28708;52.224;6.924;2023-06-05T01:05:23;10.77;;;5.80;;
43086;SDS011;28708;52.224;6.924;2023-06-05T01:07:49;10.67;;;5.57;;
43086;SDS011;28708;52.224;6.924;2023-06-05T01:10:15;10.10;;;5.93;;
43086;SDS011;28708;52.224;6.924;2023-06-05T01:15:26;9.50;;;6.07;;
43086;SDS011;28708;52.224;6.924;2023-06-05T01:17:57;11.03;;;6.50;;
43086;SDS011;28708;52.224;6.924;2023-06-05T01:23:01;11.93;;;6.03;;
43086;SDS011;28708;52.224;6.924;2023-06-05T01:28:00;11.33;;;7.00;;
43086;SDS011;28708;52.224;6.924;2023-06-05T01:30:43;12.77;;;6.73;;
43086;SDS011;28708;52.224;6.924;2023-06-05T01:33:32;10.83;;;6.37;;
43086;SDS011;28708;52.224;6.924;2023-06-05T01:36:09;13.73;;;7.28;;
43086;SDS011;28708;52.224;6.924;2023-06-05T01:38:37;11.27;;;6.50;;
43086;SDS011;28708;52.224;6.924;2023-06-05T01:41:04;12.53;;;7.33;;
43086;SDS011;28708;52.224;6.924;2023-06-05T01:43:31;11.80;;;7.20;;
43086;SDS011;28708;52.224;6.924;2023-06-05T01:45:58;14.30;;;7.07;;
43086;SDS011;28708;52.224;6.924;2023-06-05T01:48:25;11.23;;;6.93;;
43086;SDS011;28708;52.224;6.924;2023-06-05T01:50:59;15.77;;;8.03;;
43086;SDS011;28708;52.224;6.924;2023-06-05T01:53:25;12.17;;;6.67;;
43086;SDS011;28708;52.224;6.924;2023-06-05T01:55:52;11.30;;;7.37;;
43086;SDS011;28708;52.224;6.924;2023-06-05T01:58:25;14.35;;;7.82;;
43086;SDS011;28708;52.224;6.924;2023-06-05T02:00:52;11.85;;;7.18;;
43086;SDS011;28708;52.224;6.924;2023-06-05T02:03:19;12.00;;;6.97;;
43086;SDS011;28708;52.224;6.924;2023-06-05T02:05:46;11.67;;;6.77;;
43086;SDS011;28708;52.224;6.924;2023-06-05T02:08:12;12.87;;;6.97;;
43086;SDS011;28708;52.224;6.924;2023-06-05T02:10:38;11.50;;;7.23;;
43086;SDS011;28708;52.224;6.924;2023-06-05T02:13:09;12.57;;;7.00;;
43086;SDS011;28708;52.224;6.924;2023-06-05T02:15:35;11.77;;;6.87;;
43086;SDS011;28708;52.224;6.924;2023-06-05T02:18:02;12.17;;;7.27;;
43086;SDS011;28708;52.224;6.924;2023-06-05T02:20:30;13.93;;;7.80;;
43086;SDS011;28708;52.224;6.924;2023-06-05T02:22:57;12.23;;;7.87;;
43086;SDS011;28708;52.224;6.924;2023-06-05T02:25:23;14.77;;;7.97;;
43086;SDS011;28708;52.224;6.924;2023-06-05T02:27:52;12.70;;;7.97;;
43086;SDS011;28708;52.224;6.924;2023-06-05T02:30:18;14.33;;;8.20;;
43086;SDS011;28708;52.224;6.924;2023-06-05T02:32:45;14.40;;;8.43;;
43086;SDS011;28708;52.224;6.924;2023-06-05T02:35:11;15.73;;;8.50;;
43086;SDS011;28708;52.224;6.924;2023-06-05T02:37:39;12.17;;;7.47;;
43086;SDS011;28708;52.224;6.924;2023-06-05T02:40:10;11.90;;;7.57;;
43086;SDS011;28708;52.224;6.924;2023-06-05T02:42:37;16.43;;;7.97;;
43086;SDS011;28708;52.224;6.924;2023-06-05T02:45:04;13.40;;;8.97;;
43086;SDS011;28708;52.224;6.924;2023-06-05T02:47:31;12.77;;;7.53;;
43086;SDS011;28708;52.224;6.924;2023-06-05T02:49:58;14.33;;;7.77;;
43086;SDS011;28708;52.224;6.924;2023-06-05T02:52:24;13.20;;;8.17;;
43086;SDS011;28708;52.224;6.924;2023-06-05T02:54:51;17.30;;;8.70;;
43086;SDS011;28708;52.224;6.924;2023-06-05T02:57:17;13.67;;;8.80;;
43086;SDS011;28708;52.224;6.924;2023-06-05T02:59:44;17.40;;;9.23;;
43086;SDS011;28708;52.224;6.924;2023-06-05T03:02:13;14.35;;;8.57;;
43086;SDS011;28708;52.224;6.924;2023-06-05T03:04:41;17.27;;;8.77;;
43086;SDS011;28708;52.224;6.924;2023-06-05T03:07:08;14.10;;;8.63;;
43086;SDS011;28708;52.224;6.924;2023-06-05T03:09:36;17.93;;;9.47;;
43086;SDS011;28708;52.224;6.924;2023-06-05T03:12:02;17.30;;;8.97;;
43086;SDS011;28708;52.224;6.924;2023-06-05T03:14:29;13.43;;;8.10;;
43086;SDS011;28708;52.224;6.924;2023-06-05T03:16:57;17.97;;;9.53;;
43086;SDS011;28708;52.224;6.924;2023-06-05T03:19:25;16.10;;;8.83;;
43086;SDS011;28708;52.224;6.924;2023-06-05T03:21:52;14.77;;;8.87;;
43086;SDS011;28708;52.224;6.924;2023-06-05T03:24:19;16.10;;;9.00;;
43086;SDS011;28708;52.224;6.924;2023-06-05T03:26:51;14.20;;;8.87;;
43086;SDS011;28708;52.224;6.924;2023-06-05T03:29:17;16.10;;;9.37;;
43086;SDS011;28708;52.224;6.924;2023-06-05T03:31:43;18.93;;;9.30;;
43086;SDS011;28708;52.224;6.924;2023-06-05T03:34:10;16.80;;;8.53;;
43086;SDS011;28708;52.224;6.924;2023-06-05T03:36:36;12.27;;;7.93;;
43086;SDS011;28708;52.224;6.924;2023-06-05T03:39:06;14.65;;;8.50;;
43086;SDS011;28708;52.224;6.924;2023-06-05T03:41:32;15.00;;;8.53;;
43086;SDS011;28708;52.224;6.924;2023-06-05T03:43:58;13.67;;;9.13;;
43086;SDS011;28708;52.224;6.924;2023-06-05T03:46:24;15.93;;;9.37;;
43086;SDS011;28708;52.224;6.924;2023-06-05T03:48:51;15.67;;;8.27;;
43086;SDS011;28708;52.224;6.924;2023-06-05T03:51:24;18.00;;;9.93;;
43086;SDS011;28708;52.224;6.924;2023-06-05T03:53:55;21.23;;;9.70;;
43086;SDS011;28708;52.224;6.924;2023-06-05T03:56:25;13.82;;;8.77;;
43086;SDS011;28708;52.224;6.924;2023-06-05T03:59:00;17.20;;;9.50;;
43086;SDS011;28708;52.224;6.924;2023-06-05T04:01:35;17.17;;;9.00;;
43086;SDS011;28708;52.224;6.924;2023-06-05T04:04:04;18.03;;;9.67;;
43086;SDS011;28708;52.224;6.924;2023-06-05T04:06:33;18.02;;;9.15;;
43086;SDS011;28708;52.224;6.924;2023-06-05T04:09:00;18.07;;;9.10;;
43086;SDS011;28708;52.224;6.924;2023-06-05T04:11:26;16.83;;;8.87;;
43086;SDS011;28708;52.224;6.924;2023-06-05T04:13:54;13.77;;;9.20;;
43086;SDS011;28708;52.224;6.924;2023-06-05T04:16:20;18.10;;;9.90;;
43086;SDS011;28708;52.224;6.924;2023-06-05T04:18:46;13.73;;;9.30;;
43086;SDS011;28708;52.224;6.924;2023-06-05T04:21:12;15.87;;;9.70;;
43086;SDS011;28708;52.224;6.924;2023-06-05T04:23:37;16.43;;;9.43;;
43086;SDS011;28708;52.224;6.924;2023-06-05T04:26:03;15.30;;;9.63;;
43086;SDS011;28708;52.224;6.924;2023-06-05T04:28:30;19.33;;;9.30;;
43086;SDS011;28708;52.224;6.924;2023-06-05T04:30:56;14.13;;;9.03;;
43086;SDS011;28708;52.224;6.924;2023-06-05T04:33:22;20.57;;;10.17;;
43086;SDS011;28708;52.224;6.924;2023-06-05T04:35:48;15.77;;;10.00;;
43086;SDS011;28708;52.224;6.924;2023-06-05T04:38:14;15.97;;;9.30;;
43086;SDS011;28708;52.224;6.924;2023-06-05T04:40:42;17.07;;;10.37;;
43086;SDS011;28708;52.224;6.924;2023-06-05T04:43:08;21.20;;;10.37;;
43086;SDS011;28708;52.224;6.924;2023-06-05T04:45:34;18.90;;;10.27;;
43086;SDS011;28708;52.224;6.924;2023-06-05T04:48:00;18.17;;;10.73;;
43086;SDS011;28708;52.224;6.924;2023-06-05T04:50:26;17.97;;;10.20;;
43086;SDS011;28708;52.224;6.924;2023-06-05T04:53:01;14.20;;;9.43;;
43086;SDS011;28708;52.224;6.924;2023-06-05T04:55:28;15.67;;;9.63;;
43086;SDS011;28708;52.224;6.924;2023-06-05T04:57:55;16.00;;;9.77;;
43086;SDS011;28708;52.224;6.924;2023-06-05T05:00:26;20.07;;;10.10;;
43086;SDS011;28708;52.224;6.924;2023-06-05T05:02:52;16.57;;;9.50;;
43086;SDS011;28708;52.224;6.924;2023-06-05T05:05:19;18.33;;;10.13;;
43086;SDS011;28708;52.224;6.924;2023-06-05T05:07:47;16.40;;;9.03;;
43086;SDS011;28708;52.224;6.924;2023-06-05T05:10:13;16.43;;;9.83;;
43086;SDS011;28708;52.224;6.924;2023-06-05T05:12:40;15.43;;;10.40;;
43086;SDS011;28708;52.224;6.924;2023-06-05T05:15:06;15.67;;;10.47;;
43086;SDS011;28708;52.224;6.924;2023-06-05T05:17:32;19.40;;;9.70;;
43086;SDS011;28708;52.224;6.924;2023-06-05T05:20:01;20.90;;;9.90;;
43086;SDS011;28708;52.224;6.924;2023-06-05T05:22:29;16.40;;;10.37;;
43086;SDS011;28708;52.224;6.924;2023-06-05T05:24:58;13.17;;;9.60;;
43086;SDS011;28708;52.224;6.924;2023-06-05T05:27:24;20.80;;;10.90;;
43086;SDS011;28708;52.224;6.924;2023-06-05T05:29:51;14.77;;;9.67;;
43086;SDS011;28708;52.224;6.924;2023-06-05T05:32:17;15.23;;;9.50;;
43086;SDS011;28708;52.224;6.924;2023-06-05T05:34:43;18.07;;;10.37;;
43086;SDS011;28708;52.224;6.924;2023-06-05T05:37:09;20.37;;;10.40;;
43086;SDS011;28708;52.224;6.924;2023-06-05T05:39:34;20.10;;;10.10;;
43086;SDS011;28708;52.224;6.924;2023-06-05T05:42:00;18.10;;;9.80;;
43086;SDS011;28708;52.224;6.924;2023-06-05T05:44:27;16.27;;;10.27;;
43086;SDS011;28708;52.224;6.924;2023-06-05T05:46:53;17.50;;;10.43;;
43086;SDS011;28708;52.224;6.924;2023-06-05T05:49:18;16.33;;;10.10;;
43086;SDS011;28708;52.224;6.924;2023-06-05T05:51:44;16.13;;;10.33;;
43086;SDS011;28708;52.224;6.924;2023-06-05T05:54:10;18.00;;;10.07;;
43086;SDS011;28708;52.224;6.924;2023-06-05T05:56:35;21.20;;;9.67;;
43086;SDS011;28708;52.224;6.924;2023-06-05T05:59:02;17.40;;;10.27;;
43086;SDS011;28708;52.224;6.924;2023-06-05T06:01:28;14.63;;;10.03;;
43086;SDS011;28708;52.224;6.924;2023-06-05T06:03:54;20.23;;;10.17;;
43086;SDS011;28708;52.224;6.924;2023-06-05T06:06:20;13.77;;;9.97;;
43086;SDS011;28708;52.224;6.924;2023-06-05T06:08:46;16.37;;;10.03;;
43086;SDS011;28708;52.224;6.924;2023-06-05T06:11:11;17.03;;;9.10;;
43086;SDS011;28708;52.224;6.924;2023-06-05T06:13:38;15.57;;;9.47;;
43086;SDS011;28708;52.224;6.924;2023-06-05T06:16:03;16.83;;;9.10;;
43086;SDS011;28708;52.224;6.924;2023-06-05T06:18:29;16.67;;;9.90;;
43086;SDS011;28708;52.224;6.924;2023-06-05T06:20:55;16.13;;;9.97;;
43086;SDS011;28708;52.224;6.924;2023-06-05T06:23:21;16.53;;;9.47;;
43086;SDS011;28708;52.224;6.924;2023-06-05T06:25:46;15.73;;;9.43;;
43086;SDS011;28708;52.224;6.924;2023-06-05T06:28:12;14.10;;;9.17;;
43086;SDS011;28708;52.224;6.924;2023-06-05T06:30:37;15.87;;;10.57;;
43086;SDS011;28708;52.224;6.924;2023-06-05T06:33:03;14.37;;;9.47;;
43086;SDS011;28708;52.224;6.924;2023-06-05T06:35:29;14.77;;;8.70;;
43086;SDS011;28708;52.224;6.924;2023-06-05T06:37:56;14.80;;;8.83;;
43086;SDS011;28708;52.224;6.924;2023-06-05T06:40:23;15.43;;;9.10;;
43086;SDS011;28708;52.224;6.924;2023-06-05T06:42:49;15.30;;;8.90;;
43086;SDS011;28708;52.224;6.924;2023-06-05T06:45:39;14.50;;;8.77;;
43086;SDS011;28708;52.224;6.924;2023-06-05T06:48:05;12.07;;;8.73;;
43086;SDS011;28708;52.224;6.924;2023-06-05T06:50:31;14.27;;;8.67;;
43086;SDS011;28708;52.224;6.924;2023-06-05T06:52:56;18.60;;;9.10;;
43086;SDS011;28708;52.224;6.924;2023-06-05T06:55:22;14.47;;;8.83;;
43086;SDS011;28708;52.224;6.924;2023-06-05T06:57:48;13.97;;;8.97;;
43086;SDS011;28708;52.224;6.924;2023-06-05T07:00:14;14.43;;;9.40;;
43086;SDS011;28708;52.224;6.924;2023-06-05T07:02:40;15.90;;;9.10;;
43086;SDS011;28708;52.224;6.924;2023-06-05T07:05:06;17.83;;;9.63;;
43086;SDS011;28708;52.224;6.924;2023-06-05T07:07:32;16.13;;;9.33;;
43086;SDS011;28708;52.224;6.924;2023-06-05T07:09:58;16.30;;;8.90;;
43086;SDS011;28708;52.224;6.924;2023-06-05T07:12:23;14.07;;;8.87;;
43086;SDS011;28708;52.224;6.924;2023-06-05T07:14:49;16.00;;;8.90;;
43086;SDS011;28708;52.224;6.924;2023-06-05T07:17:15;13.87;;;8.73;;
43086;SDS011;28708;52.224;6.924;2023-06-05T07:19:41;15.30;;;8.63;;
43086;SDS011;28708;52.224;6.924;2023-06-05T07:22:07;13.07;;;8.40;;
43086;SDS011;28708;52.224;6.924;2023-06-05T07:24:33;14.80;;;8.33;;
43086;SDS011;28708;52.224;6.924;2023-06-05T07:27:03;15.43;;;8.30;;
43086;SDS011;28708;52.224;6.924;2023-06-05T07:29:30;17.33;;;8.83;;
43086;SDS011;28708;52.224;6.924;2023-06-05T07:31:57;14.87;;;8.00;;
43086;SDS011;28708;52.224;6.924;2023-06-05T07:34:24;15.13;;;7.77;;
43086;SDS011;28708;52.224;6.924;2023-06-05T07:36:50;14.60;;;7.60;;
43086;SDS011;28708;52.224;6.924;2023-06-05T07:39:20;10.87;;;7.77;;
43086;SDS011;28708;52.224;6.924;2023-06-05T07:41:46;10.35;;;7.13;;
43086;SDS011;28708;52.224;6.924;2023-06-05T07:44:13;14.27;;;7.90;;
43086;SDS011;28708;52.224;6.924;2023-06-05T07:46:44;13.80;;;8.43;;
43086;SDS011;28708;52.224;6.924;2023-06-05T07:49:11;10.40;;;6.37;;
43086;SDS011;28708;52.224;6.924;2023-06-05T07:51:37;12.70;;;7.33;;
43086;SDS011;28708;52.224;6.924;2023-06-05T07:54:05;12.77;;;7.47;;
43086;SDS011;28708;52.224;6.924;2023-06-05T07:56:31;12.20;;;7.20;;
43086;SDS011;28708;52.224;6.924;2023-06-05T07:58:58;14.17;;;6.53;;
43086;SDS011;28708;52.224;6.924;2023-06-05T08:01:25;11.97;;;6.00;;
43086;SDS011;28708;52.224;6.924;2023-06-05T08:03:52;13.03;;;6.30;;
43086;SDS011;28708;52.224;6.924;2023-06-05T08:06:18;12.07;;;6.33;;
43086;SDS011;28708;52.224;6.924;2023-06-05T08:08:44;12.27;;;6.10;;
43086;SDS011;28708;52.224;6.924;2023-06-05T08:11:10;12.57;;;6.63;;
43086;SDS011;28708;52.224;6.924;2023-06-05T08:13:39;8.30;;;6.33;;
43086;SDS011;28708;52.224;6.924;2023-06-05T08:16:05;10.70;;;6.50;;
43086;SDS011;28708;52.224;6.924;2023-06-05T08:18:31;9.50;;;5.83;;
43086;SDS011;28708;52.224;6.924;2023-06-05T08:20:57;7.78;;;5.15;;
43086;SDS011;28708;52.224;6.924;2023-06-05T08:23:23;10.63;;;5.55;;
43086;SDS011;28708;52.224;6.924;2023-06-05T08:25:49;11.63;;;5.47;;
43086;SDS011;28708;52.224;6.924;2023-06-05T08:28:15;10.52;;;5.00;;
43086;SDS011;28708;52.224;6.924;2023-06-05T08:30:41;10.50;;;5.15;;
43086;SDS011;28708;52.224;6.924;2023-06-05T08:33:09;10.48;;;5.00;;
43086;SDS011;28708;52.224;6.924;2023-06-05T08:35:35;9.05;;;4.40;;
43086;SDS011;28708;52.224;6.924;2023-06-05T08:38:02;8.30;;;4.38;;
43086;SDS011;28708;52.224;6.924;2023-06-05T08:40:28;11.45;;;4.68;;
43086;SDS011;28708;52.224;6.924;2023-06-05T08:42:54;7.07;;;3.85;;
43086;SDS011;28708;52.224;6.924;2023-06-05T08:45:21;7.95;;;4.90;;
43086;SDS011;28708;52.224;6.924;2023-06-05T08:47:48;8.45;;;4.68;;
43086;SDS011;28708;52.224;6.924;2023-06-05T08:50:15;9.50;;;4.28;;
43086;SDS011;28708;52.224;6.924;2023-06-05T08:52:41;9.55;;;4.50;;
43086;SDS011;28708;52.224;6.924;2023-06-05T08:55:08;7.00;;;4.25;;
43086;SDS011;28708;52.224;6.924;2023-06-05T08:57:35;7.10;;;3.72;;
43086;SDS011;28708;52.224;6.924;2023-06-05T09:00:05;10.60;;;4.13;;
43086;SDS011;28708;52.224;6.924;2023-06-05T09:02:38;8.18;;;4.28;;
43086;SDS011;28708;52.224;6.924;2023-06-05T09:05:08;7.90;;;4.15;;
43086;SDS011;28708;52.224;6.924;2023-06-05T09:07:35;8.82;;;4.63;;
43086;SDS011;28708;52.224;6.924;2023-06-05T09:10:02;8.02;;;3.90;;
43086;SDS011;28708;52.224;6.924;2023-06-05T09:12:29;12.20;;;4.80;;
43086;SDS011;28708;52.224;6.924;2023-06-05T09:14:54;8.13;;;3.88;;
43086;SDS011;28708;52.224;6.924;2023-06-05T09:17:21;10.95;;;3.97;;
43086;SDS011;28708;52.224;6.924;2023-06-05T09:19:47;11.57;;;3.75;;
43086;SDS011;28708;52.224;6.924;2023-06-05T09:22:13;8.50;;;4.30;;
43086;SDS011;28708;52.224;6.924;2023-06-05T09:24:41;8.98;;;3.85;;
43086;SDS011;28708;52.224;6.924;2023-06-05T09:27:08;8.57;;;4.07;;
43086;SDS011;28708;52.224;6.924;2023-06-05T09:29:36;9.55;;;4.45;;
43086;SDS011;28708;52.224;6.924;2023-06-05T09:32:15;6.28;;;4.32;;
43086;SDS011;28708;52.224;6.924;2023-06-05T09:34:43;6.65;;;3.95;;
43086;SDS011;28708;52.224;6.924;2023-06-05T09:37:12;9.90;;;4.33;;
43086;SDS011;28708;52.224;6.924;2023-06-05T09:39:41;6.80;;;4.32;;
43086;SDS011;28708;52.224;6.924;2023-06-05T09:42:11;6.65;;;3.65;;
43086;SDS011;28708;52.224;6.924;2023-06-05T09:44:37;5.68;;;3.35;;
43086;SDS011;28708;52.224;6.924;2023-06-05T09:47:07;8.90;;;3.45;;
43086;SDS011;28708;52.224;6.924;2023-06-05T09:52:06;9.85;;;3.80;;
43086;SDS011;28708;52.224;6.924;2023-06-05T09:54:34;8.85;;;3.63;;
43086;SDS011;28708;52.224;6.924;2023-06-05T09:57:02;8.20;;;4.20;;
43086;SDS011;28708;52.224;6.924;2023-06-05T09:59:30;7.60;;;3.63;;
43086;SDS011;28708;52.224;6.924;2023-06-05T10:01:59;7.85;;;4.50;;
43086;SDS011;28708;52.224;6.924;2023-06-05T10:06:55;7.82;;;4.20;;
43086;SDS011;28708;52.224;6.924;2023-06-05T10:09:25;6.07;;;3.75;;
43086;SDS011;28708;52.224;6.924;2023-06-05T10:11:54;7.82;;;3.75;;
43086;SDS011;28708;52.224;6.924;2023-06-05T10:14:20;8.48;;;4.25;;
43086;SDS011;28708;52.224;6.924;2023-06-05T10:16:48;10.38;;;4.20;;
43086;SDS011;28708;52.224;6.924;2023-06-05T10:19:18;6.38;;;4.53;;
43086;SDS011;28708;52.224;6.924;2023-06-05T10:21:46;8.65;;;4.30;;
43086;SDS011;28708;52.224;6.924;2023-06-05T10:24:20;9.57;;;3.90;;
43086;SDS011;28708;52.224;6.924;2023-06-05T10:35:05;7.93;;;4.35;;
43086;SDS011;28708;52.224;6.924;2023-06-05T10:40:29;7.00;;;3.58;;
43086;SDS011;28708;52.224;6.924;2023-06-05T10:45:51;9.55;;;4.32;;
43086;SDS011;28708;52.224;6.924;2023-06-05T10:48:17;6.40;;;3.60;;
43086;SDS011;28708;52.224;6.924;2023-06-05T10:50:43;11.82;;;4.45;;
43086;SDS011;28708;52.224;6.924;2023-06-05T10:59:15;9.70;;;4.40;;
43086;SDS011;28708;52.224;6.924;2023-06-05T11:01:42;9.10;;;4.38;;
43086;SDS011;28708;52.224;6.924;2023-06-05T11:04:08;6.45;;;3.50;;
43086;SDS011;28708;52.224;6.924;2023-06-05T11:06:33;8.45;;;3.63;;
43086;SDS011;28708;52.224;6.924;2023-06-05T11:09:06;6.10;;;3.70;;
43086;SDS011;28708;52.224;6.924;2023-06-05T11:17:25;5.95;;;3.40;;
43086;SDS011;28708;52.224;6.924;2023-06-05T11:19:52;8.65;;;3.20;;
43086;SDS011;28708;52.224;6.924;2023-06-05T11:22:21;7.65;;;3.83;;
43086;SDS011;28708;52.224;6.924;2023-06-05T11:27:44;8.07;;;3.70;;
43086;SDS011;28708;52.224;6.924;2023-06-05T11:30:20;4.82;;;3.28;;
43086;SDS011;28708;52.224;6.924;2023-06-05T11:32:51;7.30;;;3.25;;
43086;SDS011;28708;52.224;6.924;2023-06-05T11:35:21;7.03;;;2.70;;
43086;SDS011;28708;52.224;6.924;2023-06-05T11:37:47;7.63;;;3.50;;
43086;SDS011;28708;52.224;6.924;2023-06-05T11:40:23;7.78;;;3.40;;
43086;SDS011;28708;52.224;6.924;2023-06-05T11:42:50;7.47;;;3.97;;
43086;SDS011;28708;52.224;6.924;2023-06-05T11:45:16;11.90;;;3.67;;
43086;SDS011;28708;52.224;6.924;2023-06-05T11:47:41;7.40;;;3.38;;
43086;SDS011;28708;52.224;6.924;2023-06-05T11:50:08;6.15;;;3.50;;
43086;SDS011;28708;52.224;6.924;2023-06-05T11:52:37;7.30;;;3.40;;
43086;SDS011;28708;52.224;6.924;2023-06-05T11:55:10;9.13;;;3.33;;
43086;SDS011;28708;52.224;6.924;2023-06-05T11:57:40;5.95;;;3.20;;
43086;SDS011;28708;52.224;6.924;2023-06-05T12:00:09;6.60;;;3.70;;
43086;SDS011;28708;52.224;6.924;2023-06-05T12:02:45;5.53;;;2.80;;
43086;SDS011;28708;52.224;6.924;2023-06-05T12:05:12;32.97;;;6.88;;
43086;SDS011;28708;52.224;6.924;2023-06-05T12:07:40;7.50;;;3.50;;
43086;SDS011;28708;52.224;6.924;2023-06-05T12:10:09;7.05;;;3.35;;
43086;SDS011;28708;52.224;6.924;2023-06-05T12:12:56;4.03;;;2.20;;
43086;SDS011;28708;52.224;6.924;2023-06-05T12:15:21;7.18;;;2.95;;
43086;SDS011;28708;52.224;6.924;2023-06-05T12:17:54;5.57;;;2.45;;
43086;SDS011;28708;52.224;6.924;2023-06-05T12:20:21;5.78;;;2.22;;
43086;SDS011;28708;52.224;6.924;2023-06-05T12:22:48;7.82;;;3.17;;
43086;SDS011;28708;52.224;6.924;2023-06-05T12:25:21;8.25;;;2.92;;
43086;SDS011;28708;52.224;6.924;2023-06-05T12:27:47;7.70;;;3.00;;
43086;SDS011;28708;52.224;6.924;2023-06-05T12:30:14;5.82;;;2.78;;
43086;SDS011;28708;52.224;6.924;2023-06-05T12:32:41;5.88;;;3.20;;
43086;SDS011;28708;52.224;6.924;2023-06-05T12:35:23;5.70;;;2.67;;
43086;SDS011;28708;52.224;6.924;2023-06-05T12:37:50;7.78;;;2.80;;
43086;SDS011;28708;52.224;6.924;2023-06-05T12:40:16;4.95;;;2.55;;
43086;SDS011;28708;52.224;6.924;2023-06-05T12:42:46;5.55;;;2.33;;
43086;SDS011;28708;52.224;6.924;2023-06-05T12:45:13;5.18;;;2.58;;
43086;SDS011;28708;52.224;6.924;2023-06-05T12:47:40;5.95;;;2.83;;
43086;SDS011;28708;52.224;6.924;2023-06-05T12:50:07;5.05;;;2.65;;
43086;SDS011;28708;52.224;6.924;2023-06-05T12:55:06;5.63;;;2.35;;
43086;SDS011;28708;52.224;6.924;2023-06-05T12:57:33;11.23;;;2.40;;
43086;SDS011;28708;52.224;6.924;2023-06-05T12:59:59;5.55;;;2.45;;
43086;SDS011;28708;52.224;6.924;2023-06-05T13:02:38;6.05;;;2.00;;
43086;SDS011;28708;52.224;6.924;2023-06-05T13:05:08;5.38;;;2.30;;
43086;SDS011;28708;52.224;6.924;2023-06-05T13:07:34;7.38;;;2.17;;
43086;SDS011;28708;52.224;6.924;2023-06-05T13:10:03;8.07;;;2.60;;
43086;SDS011;28708;52.224;6.924;2023-06-05T13:12:30;3.80;;;2.10;;
43086;SDS011;28708;52.224;6.924;2023-06-05T13:14:58;4.38;;;2.38;;
43086;SDS011;28708;52.224;6.924;2023-06-05T13:17:25;6.25;;;2.15;;
43086;SDS011;28708;52.224;6.924;2023-06-05T13:19:52;5.72;;;2.30;;
43086;SDS011;28708;52.224;6.924;2023-06-05T13:22:20;6.60;;;2.00;;
43086;SDS011;28708;52.224;6.924;2023-06-05T13:24:46;5.20;;;2.13;;
43086;SDS011;28708;52.224;6.924;2023-06-05T13:27:12;4.75;;;2.10;;
43086;SDS011;28708;52.224;6.924;2023-06-05T13:29:38;11.90;;;3.08;;
43086;SDS011;28708;52.224;6.924;2023-06-05T13:32:06;7.75;;;2.30;;
43086;SDS011;28708;52.224;6.924;2023-06-05T13:34:32;5.38;;;2.00;;
43086;SDS011;28708;52.224;6.924;2023-06-05T13:36:58;5.32;;;2.20;;
43086;SDS011;28708;52.224;6.924;2023-06-05T13:39:24;3.70;;;2.20;;
43086;SDS011;28708;52.224;6.924;2023-06-05T13:41:50;3.28;;;2.00;;
43086;SDS011;28708;52.224;6.924;2023-06-05T13:44:15;4.00;;;2.10;;
43086;SDS011;28708;52.224;6.924;2023-06-05T13:46:41;6.07;;;2.08;;
43086;SDS011;28708;52.224;6.924;2023-06-05T13:49:09;6.47;;;2.00;;
43086;SDS011;28708;52.224;6.924;2023-06-05T13:51:35;4.15;;;2.20;;
43086;SDS011;28708;52.224;6.924;2023-06-05T13:54:03;6.97;;;2.42;;
43086;SDS011;28708;52.224;6.924;2023-06-05T13:56:29;5.93;;;1.80;;
43086;SDS011;28708;52.224;6.924;2023-06-05T13:58:55;3.13;;;1.73;;
43086;SDS011;28708;52.224;6.924;2023-06-05T14:01:22;11.45;;;2.60;;
43086;SDS011;28708;52.224;6.924;2023-06-05T14:03:48;4.93;;;1.90;;
43086;SDS011;28708;52.224;6.924;2023-06-05T14:06:15;3.58;;;1.90;;
43086;SDS011;28708;52.224;6.924;2023-06-05T14:08:41;11.43;;;2.22;;
43086;SDS011;28708;52.224;6.924;2023-06-05T14:11:08;4.18;;;1.77;;
43086;SDS011;28708;52.224;6.924;2023-06-05T14:13:34;4.47;;;1.70;;
43086;SDS011;28708;52.224;6.924;2023-06-05T14:16:00;8.23;;;1.80;;
43086;SDS011;28708;52.224;6.924;2023-06-05T14:18:27;4.00;;;2.28;;
43086;SDS011;28708;52.224;6.924;2023-06-05T14:20:54;5.10;;;1.98;;
43086;SDS011;28708;52.224;6.924;2023-06-05T14:23:21;5.35;;;2.33;;
43086;SDS011;28708;52.224;6.924;2023-06-05T14:25:48;4.15;;;2.05;;
43086;SDS011;28708;52.224;6.924;2023-06-05T14:28:14;7.40;;;1.95;;
43086;SDS011;28708;52.224;6.924;2023-06-05T14:30:40;5.18;;;1.90;;
43086;SDS011;28708;52.224;6.924;2023-06-05T14:33:06;3.25;;;1.70;;
43086;SDS011;28708;52.224;6.924;2023-06-05T14:35:32;5.53;;;2.20;;
43086;SDS011;28708;52.224;6.924;2023-06-05T14:37:57;5.45;;;1.77;;
43086;SDS011;28708;52.224;6.924;2023-06-05T14:40:23;4.45;;;1.88;;
43086;SDS011;28708;52.224;6.924;2023-06-05T14:42:49;2.80;;;1.60;;
43086;SDS011;28708;52.224;6.924;2023-06-05T14:45:15;3.50;;;1.63;;
43086;SDS011;28708;52.224;6.924;2023-06-05T14:47:41;4.25;;;1.65;;
43086;SDS011;28708;52.224;6.924;2023-06-05T14:50:09;4.32;;;1.80;;
43086;SDS011;28708;52.224;6.924;2023-06-05T14:52:35;5.53;;;2.10;;
43086;SDS011;28708;52.224;6.924;2023-06-05T14:55:01;5.85;;;1.90;;
43086;SDS011;28708;52.224;6.924;2023-06-05T14:57:27;5.35;;;1.98;;
43086;SDS011;28708;52.224;6.924;2023-06-05T14:59:53;3.10;;;1.70;;
43086;SDS011;28708;52.224;6.924;2023-06-05T15:02:18;6.13;;;1.73;;
43086;SDS011;28708;52.224;6.924;2023-06-05T15:04:47;5.35;;;1.70;;
43086;SDS011;28708;52.224;6.924;2023-06-05T15:07:17;4.25;;;1.92;;
43086;SDS011;28708;52.224;6.924;2023-06-05T15:09:45;4.75;;;2.10;;
43086;SDS011;28708;52.224;6.924;2023-06-05T15:12:11;5.00;;;1.90;;
43086;SDS011;28708;52.224;6.924;2023-06-05T15:14:37;6.50;;;2.13;;
43086;SDS011;28708;52.224;6.924;2023-06-05T15:17:02;5.03;;;1.75;;
43086;SDS011;28708;52.224;6.924;2023-06-05T15:19:28;7.28;;;2.22;;
43086;SDS011;28708;52.224;6.924;2023-06-05T15:21:54;3.30;;;1.50;;
43086;SDS011;28708;52.224;6.924;2023-06-05T15:24:20;5.60;;;1.80;;
43086;SDS011;28708;52.224;6.924;2023-06-05T15:26:45;6.68;;;1.95;;